createdAt,value
2022-12-01T14:04:05.836Z,22.31
2022-12-01T14:04:16.795Z,22.33
2022-12-01T14:04:26.815Z,22.36
2022-12-01T14:04:36.876Z,22.33
2022-12-01T14:04:47.288Z,22.35
2022-12-01T14:04:56.916Z,22.35
2022-12-01T14:05:06.996Z,22.35
2022-12-01T14:05:16.937Z,22.36
2022-12-01T14:05:26.974Z,22.35
2022-12-01T14:05:36.997Z,22.36
2022-12-01T14:05:47.035Z,22.36
2022-12-01T14:05:57.060Z,22.36
2022-12-01T14:06:07.106Z,22.36
2022-12-01T14:06:17.115Z,22.36
2022-12-01T14:06:27.152Z,22.36
2022-12-01T14:06:37.176Z,22.38
2022-12-01T14:06:47.223Z,22.38
2022-12-01T14:06:57.236Z,22.38
2022-12-01T14:07:07.327Z,22.38
2022-12-01T14:07:17.355Z,22.38
2022-12-01T14:07:27.350Z,22.38
2022-12-01T14:07:37.524Z,22.38
2022-12-01T14:07:47.533Z,22.38
2022-12-01T14:07:57.594Z,22.38
2022-12-01T14:08:07.602Z,22.39
2022-12-01T14:08:22.768Z,22.38
2022-12-01T14:08:28.150Z,22.35
2022-12-01T14:08:37.568Z,22.39
2022-12-01T14:08:47.585Z,22.39
2022-12-01T14:08:57.650Z,22.39
2022-12-01T14:09:07.635Z,22.38
2022-12-01T14:09:17.878Z,22.39
2022-12-01T14:09:27.691Z,22.39
2022-12-01T14:09:37.770Z,22.41
2022-12-01T14:09:47.758Z,22.41
2022-12-01T14:09:57.777Z,22.39
2022-12-01T14:10:07.757Z,22.38
2022-12-01T14:10:17.804Z,22.38
2022-12-01T14:10:27.825Z,22.38
2022-12-01T14:10:37.855Z,22.38
2022-12-01T14:10:47.896Z,22.39
2022-12-01T14:10:57.934Z,22.38
2022-12-01T14:11:07.979Z,22.39
2022-12-01T14:11:18.078Z,22.41
2022-12-01T14:11:27.996Z,22.41
2022-12-01T14:11:38.061Z,22.38
2022-12-01T14:11:48.077Z,22.39
2022-12-01T14:11:58.095Z,22.38
2022-12-01T14:12:08.136Z,22.39
2022-12-01T14:12:18.174Z,22.38
2022-12-01T14:12:28.157Z,22.39
2022-12-01T14:12:38.236Z,22.38
2022-12-01T14:12:48.234Z,22.39
2022-12-01T14:12:58.248Z,22.39
2022-12-01T14:13:08.296Z,22.36
2022-12-01T14:13:18.319Z,22.36
2022-12-01T14:13:28.465Z,22.39
2022-12-01T14:13:38.355Z,22.36
2022-12-01T14:13:48.416Z,22.38
2022-12-01T14:13:58.397Z,22.36
2022-12-01T14:14:08.438Z,22.35
2022-12-01T14:14:24.210Z,22.35
2022-12-01T14:14:30.616Z,22.31
2022-12-01T14:14:38.495Z,22.35
2022-12-01T14:14:48.536Z,22.35
2022-12-01T14:14:59.073Z,22.35
2022-12-01T14:15:08.591Z,22.31
2022-12-01T14:15:18.636Z,22.35
2022-12-01T14:15:28.755Z,22.33
2022-12-01T14:15:38.697Z,22.31
2022-12-01T14:15:48.715Z,22.33
2022-12-01T14:15:58.822Z,22.31
2022-12-01T14:16:08.829Z,22.31
2022-12-01T14:16:18.932Z,22.30
2022-12-01T14:16:28.876Z,22.31
2022-12-01T14:16:38.864Z,22.31
2022-12-01T14:16:48.838Z,22.30
2022-12-01T14:16:58.866Z,22.30
2022-12-01T14:17:08.917Z,22.30
2022-12-01T14:17:18.943Z,22.29
2022-12-01T14:17:28.954Z,22.30
2022-12-01T14:17:39.084Z,22.27
2022-12-01T14:17:49.025Z,22.29
2022-12-01T14:17:59.076Z,22.29
2022-12-01T14:18:09.095Z,22.30
2022-12-01T14:18:19.114Z,22.30
2022-12-01T14:18:29.152Z,22.29
2022-12-01T14:18:39.157Z,22.30
2022-12-01T14:18:49.198Z,22.30
2022-12-01T14:18:59.197Z,22.29
2022-12-01T14:19:09.272Z,22.30
2022-12-01T14:19:19.276Z,22.29
2022-12-01T14:19:29.295Z,22.27
2022-12-01T14:19:39.335Z,22.29
2022-12-01T14:19:49.377Z,22.27
2022-12-01T14:19:59.376Z,22.29
2022-12-01T14:20:09.395Z,22.29
2022-12-01T14:20:19.452Z,22.30
2022-12-01T14:20:29.455Z,22.30
2022-12-01T14:20:39.476Z,22.29
2022-12-01T14:20:49.499Z,22.27
2022-12-01T14:20:59.516Z,22.29
2022-12-01T14:21:09.535Z,22.30
2022-12-01T14:21:19.616Z,22.30
2022-12-01T14:21:35.119Z,22.29
2022-12-01T14:21:40.004Z,22.24
2022-12-01T14:21:49.782Z,22.26
2022-12-01T14:21:59.734Z,22.27
2022-12-01T14:22:09.717Z,22.26
2022-12-01T14:22:19.785Z,22.26
2022-12-01T14:22:29.795Z,22.27
2022-12-01T14:22:39.855Z,22.27
2022-12-01T14:22:49.844Z,22.26
2022-12-01T14:22:59.917Z,22.26
2022-12-01T14:23:09.935Z,22.29
2022-12-01T14:23:19.947Z,22.29
2022-12-01T14:23:29.976Z,22.30
2022-12-01T14:23:39.989Z,22.31
2022-12-01T14:23:50.115Z,22.33
2022-12-01T14:24:00.043Z,22.35
2022-12-01T14:24:10.087Z,22.36
2022-12-01T14:24:20.103Z,22.36
2022-12-01T14:24:30.136Z,22.36
2022-12-01T14:24:40.176Z,22.36
2022-12-01T14:24:50.389Z,22.36
2022-12-01T14:25:00.264Z,22.36
2022-12-01T14:25:10.268Z,22.38
2022-12-01T14:25:20.371Z,22.36
2022-12-01T14:25:30.356Z,22.36
2022-12-01T14:25:40.357Z,22.36
2022-12-01T14:25:50.915Z,22.36
2022-12-01T14:26:00.490Z,22.38
2022-12-01T14:26:10.435Z,22.38
2022-12-01T14:26:20.455Z,22.38
2022-12-01T14:26:30.495Z,22.38
2022-12-01T14:26:44.627Z,22.39
2022-12-01T14:26:50.598Z,22.35
2022-12-01T14:27:00.599Z,22.41
2022-12-01T14:27:10.616Z,22.41
2022-12-01T14:27:20.637Z,22.41
2022-12-01T14:27:30.675Z,22.42
2022-12-01T14:27:40.737Z,22.41
2022-12-01T14:27:50.722Z,22.41
2022-12-01T14:28:00.776Z,22.39
2022-12-01T14:28:10.796Z,22.39
2022-12-01T14:28:20.798Z,22.39
2022-12-01T14:28:30.816Z,22.39
2022-12-01T14:28:40.854Z,22.39
2022-12-01T14:28:50.896Z,22.38
2022-12-01T14:29:00.954Z,22.36
2022-12-01T14:29:10.996Z,22.38
2022-12-01T14:29:20.975Z,22.36
2022-12-01T14:29:31.055Z,22.38
2022-12-01T14:29:41.043Z,22.38
2022-12-01T14:29:51.083Z,22.39
2022-12-01T14:30:01.124Z,22.39
2022-12-01T14:30:11.334Z,22.39
2022-12-01T14:30:21.164Z,22.39
2022-12-01T14:30:31.196Z,22.39
2022-12-01T14:30:41.242Z,22.38
2022-12-01T14:30:51.303Z,22.41
2022-12-01T14:31:01.343Z,22.39
2022-12-01T14:31:11.481Z,22.41
2022-12-01T14:31:21.374Z,22.39
2022-12-01T14:31:31.399Z,22.41
2022-12-01T14:31:41.413Z,22.39
2022-12-01T14:31:51.443Z,22.39
2022-12-01T14:32:01.479Z,22.41
2022-12-01T14:32:11.495Z,22.39
2022-12-01T14:32:21.614Z,22.38
2022-12-01T14:32:31.502Z,22.41
